Time;durP1;ratioP1;P1;durP2;ratioP2;P2;SDS_P1;SDS_P2;PMS_P1;PMS_P2;Temp;Humidity;BMP_temperature;BMP_pressure;BME280_temperature;BME280_humidity;BME280_pressure;Samples;Min_cycle;Max_cycle;Signal;HPM_P1;HPM_P2
2021/03/05 00:01:26;;;;;;;;;;;17.30;61.80;;;;;;5036299;28;19921;-75
2021/03/05 00:03:57;;;;;;;;;;;17.30;61.80;;;;;;5033489;28;19917;-75
2021/03/05 00:06:28;;;;;;;;;;;17.30;61.80;;;;;;5033252;28;19913;-75
2021/03/05 00:08:53;;;;;;;;;;;17.30;61.80;;;;;;5027606;28;19912;-75
2021/03/05 00:11:19;;;;;;;;;;;17.30;61.60;;;;;;5047441;28;19935;-76
2021/03/05 00:13:45;;;;;;;;;;;17.30;61.70;;;;;;5029700;28;19979;-75
2021/03/05 00:16:15;;;;;;;;;;;17.30;61.60;;;;;;5046322;28;20024;-75
2021/03/05 00:18:41;;;;;;;;;;;17.30;61.50;;;;;;5033039;28;20389;-75
2021/03/05 00:21:11;;;;;;;;;;;17.30;61.60;;;;;;5048902;28;19912;-75
2021/03/05 00:23:42;;;;;;;;;;;17.30;61.50;;;;;;5031739;28;21530;-75
2021/03/05 00:26:12;;;;;;;;;;;17.30;61.50;;;;;;5030433;28;19913;-75
2021/03/05 00:28:43;;;;;;;;;;;17.30;61.40;;;;;;5047874;28;19912;-75
2021/03/05 00:31:08;;;;;;;;;;;17.30;61.40;;;;;;5040578;28;19944;-75
2021/03/05 00:33:38;;;;;;;;;;;17.20;61.50;;;;;;5028800;28;19917;-75
2021/03/05 00:36:09;;;;;;;;;;;17.30;61.40;;;;;;5050327;28;19916;-75
2021/03/05 00:38:46;;;;;;;;;;;17.30;61.40;;;;;;5047373;28;19913;-75
2021/03/05 00:41:11;;;;;;;;;;;17.20;61.40;;;;;;5042901;28;19921;-75
2021/03/05 00:43:37;;;;;;;;;;;17.30;61.30;;;;;;5046463;28;19924;-75
2021/03/05 00:46:05;;;;;;;;;;;17.30;61.30;;;;;;5047072;28;20363;-75
2021/03/05 00:48:31;;;;;;;;;;;17.20;61.30;;;;;;5046697;28;19913;-75
2021/03/05 00:51:04;;;;;;;;;;;17.30;61.20;;;;;;5032357;28;20389;-75
2021/03/05 00:53:29;;;;;;;;;;;17.30;61.30;;;;;;5030289;28;19917;-75
2021/03/05 00:55:55;;;;;;;;;;;17.30;61.20;;;;;;5041048;28;19936;-75
2021/03/05 00:58:25;;;;;;;;;;;17.30;61.20;;;;;;5030354;28;19912;-74
2021/03/05 01:00:56;;;;;;;;;;;17.30;61.20;;;;;;5046962;28;20023;-75
2021/03/05 01:03:21;;;;;;;;;;;17.30;61.20;;;;;;5048401;28;19917;-75
2021/03/05 01:05:52;;;;;;;;;;;17.30;61.20;;;;;;5031491;28;19954;-75
2021/03/05 01:08:17;;;;;;;;;;;17.30;61.20;;;;;;5046305;28;20000;-75
2021/03/05 01:10:43;;;;;;;;;;;17.20;61.10;;;;;;5043474;28;20348;-75
2021/03/05 01:13:09;;;;;;;;;;;17.30;61.10;;;;;;5035879;28;20437;-75
2021/03/05 01:15:37;;;;;;;;;;;17.30;61.10;;;;;;5016704;28;20008;-75
2021/03/05 01:18:06;;;;;;;;;;;17.30;61.00;;;;;;5045378;28;19983;-75
2021/03/05 01:20:32;;;;;;;;;;;17.20;61.00;;;;;;5040187;28;20348;-75
2021/03/05 01:23:02;;;;;;;;;;;17.20;61.00;;;;;;5028227;28;20003;-75
2021/03/05 01:25:30;;;;;;;;;;;17.30;61.00;;;;;;5047004;28;19913;-80
2021/03/05 01:28:00;;;;;;;;;;;17.20;61.00;;;;;;5027287;28;19917;-75
2021/03/05 01:30:26;;;;;;;;;;;17.20;60.90;;;;;;5028042;28;19925;-75
2021/03/05 01:32:52;;;;;;;;;;;17.20;61.00;;;;;;5050305;28;19917;-75
2021/03/05 01:35:22;;;;;;;;;;;17.20;61.00;;;;;;5045497;28;20059;-75
2021/03/05 01:37:48;;;;;;;;;;;17.20;61.00;;;;;;5031503;28;19960;-75
2021/03/05 01:40:15;;;;;;;;;;;17.20;61.00;;;;;;5029351;28;19956;-75
2021/03/05 01:42:41;;;;;;;;;;;17.20;60.90;;;;;;5028654;28;20011;-75
2021/03/05 01:45:14;;;;;;;;;;;17.20;60.90;;;;;;5028816;28;20007;-75
2021/03/05 01:47:40;;;;;;;;;;;17.20;60.90;;;;;;5047754;28;20333;-75
2021/03/05 01:50:10;;;;;;;;;;;17.20;60.90;;;;;;5046808;28;20305;-75
2021/03/05 01:52:35;;;;;;;;;;;17.20;60.90;;;;;;5030319;28;20296;-75
2021/03/05 01:55:01;;;;;;;;;;;17.20;60.80;;;;;;5045727;28;19917;-74
2021/03/05 01:57:31;;;;;;;;;;;17.20;60.90;;;;;;5029295;28;19917;-79
2021/03/05 02:00:00;;;;;;;;;;;17.20;60.90;;;;;;5044985;28;19976;-76
2021/03/05 02:02:26;;;;;;;;;;;17.20;60.90;;;;;;5046906;28;19971;-76
2021/03/05 02:04:57;;;;;;;;;;;17.20;60.90;;;;;;5032318;28;19909;-76
2021/03/05 02:07:27;;;;;;;;;;;17.20;60.90;;;;;;5053679;28;20003;-76
2021/03/05 02:09:53;;;;;;;;;;;17.20;61.10;;;;;;5046520;28;19917;-75
2021/03/05 02:12:18;;;;;;;;;;;17.20;61.20;;;;;;5050350;28;19913;-75
2021/03/05 02:14:44;;;;;;;;;;;17.20;61.20;;;;;;5032713;28;19917;-75
2021/03/05 02:17:39;;;;;;;;;;;17.20;61.10;;;;;;5052354;28;19913;-75
2021/03/05 02:20:16;;;;;;;;;;;17.20;61.10;;;;;;4977633;28;19995;-75
2021/03/05 02:22:57;;;;;;;;;;;17.20;61.10;;;;;;5037030;28;19913;-75
2021/03/05 02:25:38;;;;;;;;;;;17.20;61.00;;;;;;5032762;28;19959;-75
2021/03/05 02:28:23;;;;;;;;;;;17.20;61.00;;;;;;5032735;28;20293;-75
2021/03/05 02:31:03;;;;;;;;;;;17.20;61.00;;;;;;5046757;28;19928;-75
2021/03/05 02:33:33;;;;;;;;;;;17.20;60.90;;;;;;5051168;28;19968;-75
2021/03/05 02:36:05;;;;;;;;;;;17.20;60.90;;;;;;5046410;28;19925;-75
2021/03/05 02:38:31;;;;;;;;;;;17.20;60.90;;;;;;5034642;28;20375;-75
2021/03/05 02:40:58;;;;;;;;;;;17.20;60.80;;;;;;5049658;28;19913;-75
2021/03/05 02:43:29;;;;;;;;;;;17.20;60.80;;;;;;5047583;28;19963;-75
2021/03/05 02:46:15;;;;;;;;;;;17.20;60.80;;;;;;5032041;28;20333;-75
2021/03/05 02:48:44;;;;;;;;;;;17.20;60.70;;;;;;5047179;28;19913;-75
2021/03/05 02:51:12;;;;;;;;;;;17.20;60.70;;;;;;5034976;28;19920;-75
2021/03/05 02:53:42;;;;;;;;;;;17.20;60.70;;;;;;5047063;28;20012;-75
2021/03/05 02:56:15;;;;;;;;;;;17.20;60.70;;;;;;5032247;28;19994;-76
2021/03/05 02:58:42;;;;;;;;;;;17.20;60.70;;;;;;5048555;28;19913;-76
2021/03/05 03:01:09;;;;;;;;;;;17.10;60.60;;;;;;5025944;28;19913;-76
2021/03/05 03:03:39;;;;;;;;;;;17.20;60.70;;;;;;5048773;28;19928;-76
2021/03/05 03:06:09;;;;;;;;;;;17.20;60.60;;;;;;5053318;28;19919;-77
2021/03/05 03:08:35;;;;;;;;;;;17.20;60.60;;;;;;5044995;28;20400;-76
2021/03/05 03:11:02;;;;;;;;;;;17.20;60.60;;;;;;5029359;28;19928;-76
2021/03/05 03:13:27;;;;;;;;;;;17.10;60.60;;;;;;5031932;28;20421;-76
2021/03/05 03:15:53;;;;;;;;;;;17.20;60.50;;;;;;5033915;28;19984;-76
2021/03/05 03:18:19;;;;;;;;;;;17.20;60.50;;;;;;5034131;28;19912;-76
2021/03/05 03:20:49;;;;;;;;;;;17.20;60.50;;;;;;5048531;28;19920;-76
2021/03/05 03:23:15;;;;;;;;;;;17.20;60.50;;;;;;5030428;28;19920;-76
2021/03/05 03:25:43;;;;;;;;;;;17.20;60.50;;;;;;5042625;28;20290;-76
2021/03/05 03:28:13;;;;;;;;;;;17.20;60.50;;;;;;5032751;28;20370;-76
2021/03/05 03:30:44;;;;;;;;;;;17.20;60.40;;;;;;5048771;28;19974;-76
2021/03/05 03:33:09;;;;;;;;;;;17.10;60.50;;;;;;5049561;28;19950;-76
2021/03/05 03:35:50;;;;;;;;;;;17.10;60.40;;;;;;5033282;28;20570;-76
2021/03/05 03:38:18;;;;;;;;;;;17.20;60.40;;;;;;5027787;28;20102;-76
2021/03/05 03:40:52;;;;;;;;;;;17.10;60.30;;;;;;5046493;28;20003;-75
2021/03/05 03:43:18;;;;;;;;;;;17.10;60.30;;;;;;5030846;28;20408;-76
2021/03/05 03:45:43;;;;;;;;;;;17.10;60.30;;;;;;5030789;28;20010;-76
2021/03/05 03:48:13;;;;;;;;;;;17.10;60.30;;;;;;5052326;28;19920;-76
2021/03/05 03:50:49;;;;;;;;;;;17.10;60.30;;;;;;5034251;28;19919;-76
2021/03/05 03:53:16;;;;;;;;;;;17.10;60.30;;;;;;5048486;28;19925;-76
2021/03/05 03:55:44;;;;;;;;;;;17.10;60.20;;;;;;5045318;28;19972;-76
2021/03/05 03:58:10;;;;;;;;;;;17.10;60.30;;;;;;5028601;28;19991;-76
2021/03/05 04:00:36;;;;;;;;;;;17.10;60.20;;;;;;5046910;28;19924;-76
2021/03/05 04:03:06;;;;;;;;;;;17.10;60.30;;;;;;5031375;28;19913;-76
2021/03/05 04:05:38;;;;;;;;;;;17.10;60.20;;;;;;5046006;28;21090;-76
2021/03/05 04:08:04;;;;;;;;;;;17.10;60.20;;;;;;5032680;28;19924;-76
2021/03/05 04:10:30;;;;;;;;;;;17.10;60.20;;;;;;5046466;28;19925;-76
2021/03/05 04:12:56;;;;;;;;;;;17.10;60.20;;;;;;5043630;28;19928;-76
2021/03/05 04:15:23;;;;;;;;;;;17.10;60.20;;;;;;5028177;28;19917;-76
2021/03/05 04:17:53;;;;;;;;;;;17.10;60.10;;;;;;5047575;28;19922;-76
2021/03/05 04:20:24;;;;;;;;;;;17.10;60.20;;;;;;5033047;28;19940;-76
2021/03/05 04:22:50;;;;;;;;;;;17.10;60.10;;;;;;5031082;28;20246;-76
2021/03/05 04:25:20;;;;;;;;;;;17.10;60.10;;;;;;5042606;28;19971;-76
2021/03/05 04:27:51;;;;;;;;;;;17.10;60.10;;;;;;5029996;28;19924;-76
2021/03/05 04:30:16;;;;;;;;;;;17.10;60.10;;;;;;5029456;28;19971;-76
2021/03/05 04:32:47;;;;;;;;;;;17.10;60.10;;;;;;5027314;28;19917;-76
2021/03/05 04:35:17;;;;;;;;;;;17.10;60.00;;;;;;5049117;28;20374;-76
2021/03/05 04:37:43;;;;;;;;;;;17.10;60.00;;;;;;5047207;28;19971;-76
2021/03/05 04:40:10;;;;;;;;;;;17.10;60.10;;;;;;5031335;28;19912;-76
2021/03/05 04:42:49;;;;;;;;;;;17.10;60.00;;;;;;5047155;28;20476;-76
2021/03/05 04:45:15;;;;;;;;;;;17.10;60.00;;;;;;5012513;28;20527;-76
2021/03/05 04:47:40;;;;;;;;;;;17.10;60.00;;;;;;5049165;28;19996;-76
2021/03/05 04:50:06;;;;;;;;;;;17.10;60.00;;;;;;5044042;28;20024;-76
2021/03/05 04:52:32;;;;;;;;;;;17.10;60.00;;;;;;5030678;28;19913;-76
2021/03/05 04:54:57;;;;;;;;;;;17.10;60.00;;;;;;5045485;28;19917;-76
2021/03/05 04:57:23;;;;;;;;;;;17.10;60.00;;;;;;5043968;28;19996;-76
2021/03/05 04:59:48;;;;;;;;;;;17.10;59.90;;;;;;5041274;28;19920;-76
2021/03/05 05:02:19;;;;;;;;;;;17.10;59.90;;;;;;5046414;28;19927;-76
2021/03/05 05:04:44;;;;;;;;;;;17.10;59.90;;;;;;5026388;28;20289;-76
2021/03/05 05:07:10;;;;;;;;;;;17.10;59.90;;;;;;5032064;28;19921;-76
2021/03/05 05:09:40;;;;;;;;;;;17.10;59.90;;;;;;5030698;28;19916;-76
2021/03/05 05:12:06;;;;;;;;;;;17.10;59.90;;;;;;5029690;28;20371;-76
2021/03/05 05:14:31;;;;;;;;;;;17.10;59.90;;;;;;5044434;28;19956;-76
2021/03/05 05:16:57;;;;;;;;;;;17.10;59.80;;;;;;5047412;28;19959;-76
2021/03/05 05:19:22;;;;;;;;;;;17.10;59.90;;;;;;5046059;28;19913;-76
2021/03/05 05:21:53;;;;;;;;;;;17.10;59.90;;;;;;5044834;28;20377;-76
2021/03/05 05:24:18;;;;;;;;;;;17.10;59.80;;;;;;5046184;28;19943;-76
2021/03/05 05:26:44;;;;;;;;;;;17.10;59.80;;;;;;5045071;28;19913;-76
2021/03/05 05:29:10;;;;;;;;;;;17.10;59.80;;;;;;5045442;28;19920;-76
2021/03/05 05:31:40;;;;;;;;;;;17.10;59.80;;;;;;5041139;28;19921;-76
2021/03/05 05:34:06;;;;;;;;;;;17.00;59.80;;;;;;5045228;28;19967;-76
2021/03/05 05:36:34;;;;;;;;;;;17.10;59.80;;;;;;5030122;28;19952;-76
2021/03/05 05:39:05;;;;;;;;;;;17.10;59.80;;;;;;5043364;28;19909;-76
2021/03/05 05:41:31;;;;;;;;;;;17.10;59.80;;;;;;5030837;28;19921;-76
2021/03/05 05:44:01;;;;;;;;;;;17.10;59.70;;;;;;5023839;28;19928;-76
2021/03/05 05:46:32;;;;;;;;;;;17.10;59.70;;;;;;5025175;28;19917;-75
2021/03/05 05:49:02;;;;;;;;;;;17.10;59.70;;;;;;5048702;28;19920;-76
2021/03/05 05:51:34;;;;;;;;;;;17.10;60.30;;;;;;5027171;28;19953;-76
2021/03/05 05:54:06;;;;;;;;;;;17.10;60.70;;;;;;5027984;28;20474;-76
2021/03/05 05:56:38;;;;;;;;;;;17.10;60.90;;;;;;5039931;28;20185;-76
2021/03/05 05:59:16;;;;;;;;;;;17.10;61.00;;;;;;5036822;28;19936;-76
2021/03/05 06:01:42;;;;;;;;;;;17.10;61.00;;;;;;5029936;28;19917;-76
2021/03/05 06:04:15;;;;;;;;;;;17.10;61.00;;;;;;5029088;28;19913;-76
2021/03/05 06:06:40;;;;;;;;;;;17.10;61.00;;;;;;5024370;28;20251;-76
2021/03/05 06:09:06;;;;;;;;;;;17.10;61.00;;;;;;5028830;28;19978;-76
2021/03/05 06:11:32;;;;;;;;;;;17.10;61.00;;;;;;5025447;28;20002;-76
2021/03/05 06:13:59;;;;;;;;;;;17.10;61.00;;;;;;5042302;28;19956;-76
2021/03/05 06:16:25;;;;;;;;;;;17.10;60.90;;;;;;5048477;28;19917;-76
2021/03/05 06:19:03;;;;;;;;;;;17.10;60.90;;;;;;5044905;28;20385;-76
2021/03/05 06:21:36;;;;;;;;;;;17.10;60.90;;;;;;5047320;28;20362;-76
2021/03/05 06:24:04;;;;;;;;;;;17.10;60.80;;;;;;5028287;28;20000;-76
2021/03/05 06:26:30;;;;;;;;;;;17.10;60.80;;;;;;5041275;28;19963;-75
2021/03/05 06:29:03;;;;;;;;;;;17.10;60.80;;;;;;5043761;28;19913;-76
2021/03/05 06:31:28;;;;;;;;;;;17.10;60.80;;;;;;5047966;28;19919;-76
2021/03/05 06:34:02;;;;;;;;;;;17.10;60.80;;;;;;5030670;28;19916;-76
2021/03/05 06:36:35;;;;;;;;;;;17.10;60.80;;;;;;5030500;28;20003;-76
2021/03/05 06:39:06;;;;;;;;;;;17.10;60.80;;;;;;5043384;28;20317;-76
2021/03/05 06:41:36;;;;;;;;;;;17.10;60.70;;;;;;5024812;28;19963;-76
2021/03/05 06:44:03;;;;;;;;;;;17.10;60.80;;;;;;5042664;28;19912;-76
2021/03/05 06:46:36;;;;;;;;;;;17.10;60.70;;;;;;5028839;28;20282;-76
2021/03/05 06:49:12;;;;;;;;;;;17.10;60.70;;;;;;5045595;28;19935;-76
2021/03/05 06:51:50;;;;;;;;;;;17.10;60.60;;;;;;5026998;28;19909;-76
2021/03/05 06:54:36;;;;;;;;;;;17.10;60.60;;;;;;5049314;28;19967;-76
2021/03/05 06:57:03;;;;;;;;;;;17.10;60.60;;;;;;5031811;28;19917;-75
2021/03/05 06:59:39;;;;;;;;;;;17.10;60.60;;;;;;5030323;28;19909;-76
2021/03/05 07:02:16;;;;;;;;;;;17.10;60.60;;;;;;5019849;28;19913;-75
2021/03/05 07:04:42;;;;;;;;;;;17.10;60.60;;;;;;5030894;28;19921;-76
2021/03/05 07:07:12;;;;;;;;;;;17.10;60.60;;;;;;5032031;28;19909;-76
2021/03/05 07:09:42;;;;;;;;;;;17.10;60.60;;;;;;5030985;28;20004;-75
2021/03/05 07:12:17;;;;;;;;;;;17.10;60.50;;;;;;5032789;28;19913;-75
2021/03/05 07:14:44;;;;;;;;;;;17.10;60.50;;;;;;5029436;28;19917;-76
2021/03/05 07:17:13;;;;;;;;;;;17.10;60.50;;;;;;5046628;28;19920;-75
2021/03/05 07:19:44;;;;;;;;;;;17.10;60.40;;;;;;5040528;28;19909;-76
2021/03/05 07:22:12;;;;;;;;;;;17.10;60.40;;;;;;5050805;28;20372;-76
2021/03/05 07:24:41;;;;;;;;;;;17.10;60.40;;;;;;5043433;28;19909;-75
2021/03/05 07:27:08;;;;;;;;;;;17.10;60.40;;;;;;5043214;28;19954;-75
2021/03/05 07:29:46;;;;;;;;;;;17.10;60.30;;;;;;5042528;28;19928;-76
2021/03/05 07:32:15;;;;;;;;;;;17.10;60.30;;;;;;5043389;28;20354;-75
2021/03/05 07:34:47;;;;;;;;;;;17.10;60.30;;;;;;5048732;28;20015;-75
2021/03/05 07:37:13;;;;;;;;;;;17.10;60.30;;;;;;5050085;28;19928;-76
2021/03/05 07:39:42;;;;;;;;;;;17.10;60.30;;;;;;5028435;28;19938;-76
2021/03/05 07:42:10;;;;;;;;;;;17.10;60.30;;;;;;5029378;28;20335;-76
2021/03/05 07:44:44;;;;;;;;;;;17.10;60.30;;;;;;5028473;28;19917;-76
2021/03/05 07:47:11;;;;;;;;;;;17.10;60.50;;;;;;5049590;28;19971;-75
2021/03/05 07:49:37;;;;;;;;;;;17.10;60.40;;;;;;5031206;28;19948;-75
2021/03/05 07:52:13;;;;;;;;;;;17.10;60.40;;;;;;5044334;28;19967;-75
2021/03/05 07:54:43;;;;;;;;;;;17.10;60.40;;;;;;5039188;28;20008;-75
2021/03/05 07:57:12;;;;;;;;;;;17.10;60.40;;;;;;5045697;28;20389;-75
2021/03/05 07:59:50;;;;;;;;;;;17.10;60.40;;;;;;5029650;28;19913;-75
2021/03/05 08:02:16;;;;;;;;;;;17.10;60.40;;;;;;5048811;28;20019;-76
2021/03/05 08:07:17;;;;;;;;;;;17.10;60.40;;;;;;5052418;28;19924;-75
2021/03/05 08:09:52;;;;;;;;;;;17.10;60.30;;;;;;5031319;28;19951;-75
2021/03/05 08:12:48;;;;;;;;;;;17.10;60.30;;;;;;5028715;28;19913;-75
2021/03/05 08:15:18;;;;;;;;;;;17.10;60.30;;;;;;5030340;28;20325;-75
2021/03/05 08:17:53;;;;;;;;;;;17.10;60.30;;;;;;5033477;28;20416;-75
2021/03/05 08:20:24;;;;;;;;;;;17.10;60.30;;;;;;5037868;28;19921;-75
2021/03/05 08:23:08;;;;;;;;;;;17.10;60.20;;;;;;5031783;28;19913;-75
2021/03/05 08:25:39;;;;;;;;;;;17.20;60.20;;;;;;5040878;28;20326;-75
2021/03/05 08:28:09;;;;;;;;;;;17.10;60.30;;;;;;5031767;28;20266;-75
2021/03/05 08:30:34;;;;;;;;;;;17.10;60.30;;;;;;5047055;28;20015;-76
2021/03/05 08:33:05;;;;;;;;;;;17.10;60.30;;;;;;5031740;28;20059;-76
2021/03/05 08:35:31;;;;;;;;;;;17.10;60.30;;;;;;5047930;28;20323;-75
2021/03/05 08:37:58;;;;;;;;;;;17.10;60.40;;;;;;5029433;28;21413;-74
2021/03/05 08:40:34;;;;;;;;;;;17.10;60.30;;;;;;5044998;28;19920;-76
2021/03/05 08:43:09;;;;;;;;;;;17.10;60.30;;;;;;5027364;28;20385;-76
2021/03/05 08:45:41;;;;;;;;;;;17.10;60.30;;;;;;5030732;28;20515;-76
2021/03/05 08:48:11;;;;;;;;;;;17.20;60.20;;;;;;5047696;28;19986;-76
2021/03/05 08:50:40;;;;;;;;;;;17.20;60.20;;;;;;5048622;28;19913;-75
2021/03/05 08:53:12;;;;;;;;;;;17.20;60.20;;;;;;5030500;28;20011;-75
2021/03/05 08:55:38;;;;;;;;;;;17.20;60.10;;;;;;5025800;28;20297;-75
2021/03/05 08:58:08;;;;;;;;;;;17.20;60.00;;;;;;5042282;28;19961;-75
2021/03/05 09:00:38;;;;;;;;;;;17.20;60.20;;;;;;5030259;28;19952;-75
2021/03/05 09:03:11;;;;;;;;;;;17.20;60.40;;;;;;5030213;28;20375;-75
2021/03/05 09:05:38;;;;;;;;;;;17.30;60.50;;;;;;5031100;28;19920;-76
2021/03/05 09:08:04;;;;;;;;;;;17.30;60.70;;;;;;5045642;28;20478;-75
2021/03/05 09:10:51;;;;;;;;;;;17.30;60.60;;;;;;5028177;28;19919;-75
2021/03/05 09:13:21;;;;;;;;;;;17.30;60.70;;;;;;5044203;28;20017;-76
2021/03/05 09:15:53;;;;;;;;;;;17.30;60.70;;;;;;5030644;28;20012;-76
2021/03/05 09:18:20;;;;;;;;;;;17.20;60.80;;;;;;5049874;28;20362;-75
2021/03/05 09:20:50;;;;;;;;;;;17.20;60.80;;;;;;5049522;28;19920;-75
2021/03/05 09:23:23;;;;;;;;;;;17.30;60.80;;;;;;5024998;28;19924;-75
2021/03/05 09:25:50;;;;;;;;;;;17.20;60.80;;;;;;5030610;28;19913;-75
2021/03/05 09:28:16;;;;;;;;;;;17.20;60.70;;;;;;5029345;28;19921;-76
2021/03/05 09:30:49;;;;;;;;;;;17.20;60.70;;;;;;5045729;28;19932;-75
2021/03/05 09:33:35;;;;;;;;;;;17.20;60.60;;;;;;5046890;28;19913;-75
2021/03/05 09:36:07;;;;;;;;;;;17.20;60.60;;;;;;5030080;28;19920;-75
2021/03/05 09:38:36;;;;;;;;;;;17.20;60.60;;;;;;5028332;28;20200;-75
2021/03/05 09:41:10;;;;;;;;;;;17.20;60.60;;;;;;5028359;28;19920;-75
2021/03/05 09:43:41;;;;;;;;;;;17.20;60.50;;;;;;5046216;28;20382;-75
2021/03/05 09:46:16;;;;;;;;;;;17.20;60.50;;;;;;5046257;28;19920;-75
2021/03/05 09:48:42;;;;;;;;;;;17.20;60.50;;;;;;5031636;28;19920;-75
2021/03/05 09:51:13;;;;;;;;;;;17.20;60.50;;;;;;5029466;28;19913;-75
2021/03/05 09:53:47;;;;;;;;;;;17.20;60.40;;;;;;5045582;28;20388;-75
2021/03/05 09:56:13;;;;;;;;;;;17.20;60.40;;;;;;5028082;28;20401;-75
2021/03/05 09:58:59;;;;;;;;;;;17.20;60.40;;;;;;5038839;28;19913;-75
2021/03/05 10:01:30;;;;;;;;;;;17.20;60.40;;;;;;5030036;28;19913;-75
2021/03/05 10:04:00;;;;;;;;;;;17.20;60.40;;;;;;5029241;28;19916;-75
2021/03/05 10:06:26;;;;;;;;;;;17.10;60.40;;;;;;5046090;28;19921;-74
2021/03/05 10:09:03;;;;;;;;;;;17.10;60.50;;;;;;5026628;28;19913;-76
2021/03/05 10:11:34;;;;;;;;;;;17.10;60.40;;;;;;5026312;28;19920;-75
2021/03/05 10:14:00;;;;;;;;;;;17.10;60.40;;;;;;5025648;28;19917;-76
2021/03/05 10:16:30;;;;;;;;;;;17.10;60.40;;;;;;5028682;28;20320;-75
2021/03/05 10:19:04;;;;;;;;;;;17.10;60.30;;;;;;5031297;28;19959;-75
2021/03/05 10:21:41;;;;;;;;;;;17.20;60.30;;;;;;5048321;28;20285;-74
2021/03/05 10:24:07;;;;;;;;;;;17.20;60.20;;;;;;5042971;28;19916;-76
2021/03/05 10:26:33;;;;;;;;;;;17.20;60.10;;;;;;5029063;28;19912;-75
2021/03/05 10:29:03;;;;;;;;;;;17.20;60.10;;;;;;5042892;28;20304;-76
2021/03/05 10:31:42;;;;;;;;;;;17.20;60.00;;;;;;5046734;28;19920;-75
2021/03/05 10:34:18;;;;;;;;;;;17.20;60.00;;;;;;5047298;28;19964;-75
2021/03/05 10:36:43;;;;;;;;;;;17.20;60.00;;;;;;5044922;28;19917;-75
2021/03/05 10:39:14;;;;;;;;;;;17.20;60.00;;;;;;5046094;28;19912;-74
2021/03/05 10:41:47;;;;;;;;;;;17.20;60.00;;;;;;5047044;28;19913;-75
2021/03/05 10:44:21;;;;;;;;;;;17.30;60.00;;;;;;5048682;28;19917;-75
2021/03/05 10:46:51;;;;;;;;;;;17.20;59.90;;;;;;5048029;28;20301;-75
2021/03/05 10:49:17;;;;;;;;;;;17.30;59.90;;;;;;5025498;28;19924;-75
2021/03/05 10:51:47;;;;;;;;;;;17.20;60.50;;;;;;5032818;28;19921;-75
2021/03/05 10:54:27;;;;;;;;;;;17.30;60.60;;;;;;5028122;28;19932;-75
2021/03/05 10:56:53;;;;;;;;;;;17.20;60.50;;;;;;5028812;28;19923;-75
2021/03/05 10:59:23;;;;;;;;;;;17.20;60.40;;;;;;5043161;28;19920;-75
2021/03/05 11:01:51;;;;;;;;;;;17.20;60.40;;;;;;5053380;28;19932;-75
2021/03/05 11:04:18;;;;;;;;;;;17.20;60.30;;;;;;5045824;28;19920;-75
2021/03/05 11:06:48;;;;;;;;;;;17.30;60.30;;;;;;5052125;28;19921;-75
2021/03/05 11:09:17;;;;;;;;;;;17.30;60.10;;;;;;5025476;28;20282;-75
2021/03/05 11:11:44;;;;;;;;;;;17.30;60.10;;;;;;5047447;28;19920;-75
2021/03/05 11:14:10;;;;;;;;;;;17.30;60.10;;;;;;5028443;28;20271;-75
2021/03/05 11:16:36;;;;;;;;;;;17.30;60.00;;;;;;5051610;28;20383;-76
2021/03/05 11:19:11;;;;;;;;;;;17.30;60.00;;;;;;5025938;28;19914;-76
2021/03/05 11:21:41;;;;;;;;;;;17.30;60.40;;;;;;5048645;28;19921;-75
2021/03/05 11:24:13;;;;;;;;;;;17.30;60.60;;;;;;5023879;28;19962;-75
2021/03/05 11:26:53;;;;;;;;;;;17.20;60.60;;;;;;5042542;28;19913;-75
2021/03/05 11:29:22;;;;;;;;;;;17.20;60.60;;;;;;5037633;28;19929;-76
2021/03/05 11:34:35;;;;;;;;;;;17.30;60.40;;;;;;4798438;23;19972;-75
2021/03/05 11:37:03;;;;;;;;;;;17.30;60.40;;;;;;5043942;28;20757;-75
2021/03/05 11:39:29;;;;;;;;;;;17.20;60.40;;;;;;5063478;28;19916;-75
2021/03/05 11:41:59;;;;;;;;;;;17.20;60.40;;;;;;5046482;28;19916;-75
2021/03/05 11:44:40;;;;;;;;;;;17.20;60.40;;;;;;5069259;28;19913;-75
2021/03/05 11:47:10;;;;;;;;;;;17.20;60.40;;;;;;5070427;28;19967;-75
2021/03/05 11:49:44;;;;;;;;;;;17.20;60.40;;;;;;5040717;28;19919;-75
2021/03/05 11:52:14;;;;;;;;;;;17.20;60.30;;;;;;5051687;28;19920;-75
2021/03/05 11:54:40;;;;;;;;;;;17.30;60.20;;;;;;5067168;28;19923;-76
2021/03/05 11:57:07;;;;;;;;;;;17.20;60.20;;;;;;5049546;28;19917;-75
2021/03/05 11:59:33;;;;;;;;;;;17.30;60.10;;;;;;5050925;28;19927;-75
2021/03/05 12:01:58;;;;;;;;;;;17.20;60.00;;;;;;5047063;28;20000;-75
2021/03/05 12:04:29;;;;;;;;;;;17.30;60.00;;;;;;5052723;28;19912;-75
2021/03/05 12:07:04;;;;;;;;;;;17.30;59.90;;;;;;5066904;28;20364;-75
2021/03/05 12:09:29;;;;;;;;;;;17.40;59.70;;;;;;5049906;28;19916;-75
2021/03/05 12:11:55;;;;;;;;;;;17.40;59.60;;;;;;5063994;28;19916;-75
2021/03/05 12:14:21;;;;;;;;;;;17.40;59.50;;;;;;5046889;28;20003;-75
2021/03/05 12:16:51;;;;;;;;;;;17.40;59.40;;;;;;5068505;28;19963;-75
2021/03/05 12:19:17;;;;;;;;;;;17.40;59.40;;;;;;5047972;28;19917;-74
2021/03/05 12:21:42;;;;;;;;;;;17.40;59.40;;;;;;5049948;28;19913;-75
2021/03/05 12:24:13;;;;;;;;;;;17.40;59.40;;;;;;5064232;28;19920;-77
2021/03/05 12:26:52;;;;;;;;;;;17.50;59.40;;;;;;5049178;28;19963;-74
2021/03/05 12:29:18;;;;;;;;;;;17.50;59.40;;;;;;5059917;28;19920;-74
2021/03/05 12:31:51;;;;;;;;;;;17.50;59.40;;;;;;5069824;28;19917;-76
2021/03/05 12:34:22;;;;;;;;;;;17.40;59.40;;;;;;5051651;28;20325;-75
2021/03/05 12:36:52;;;;;;;;;;;17.40;59.40;;;;;;5060756;28;19921;-75
2021/03/05 12:39:18;;;;;;;;;;;17.50;59.40;;;;;;5046048;28;19940;-75
2021/03/05 12:41:43;;;;;;;;;;;17.40;59.40;;;;;;5030118;28;19945;-74
2021/03/05 12:44:09;;;;;;;;;;;17.40;59.50;;;;;;5052982;28;20317;-74
2021/03/05 12:46:35;;;;;;;;;;;17.40;59.50;;;;;;5054571;28;19917;-74
2021/03/05 12:49:01;;;;;;;;;;;17.40;59.40;;;;;;5051666;28;19916;-74
2021/03/05 12:51:27;;;;;;;;;;;17.40;59.50;;;;;;5052147;28;19958;-75
2021/03/05 12:53:56;;;;;;;;;;;17.40;59.50;;;;;;5043076;28;19920;-75
2021/03/05 12:56:21;;;;;;;;;;;17.40;59.50;;;;;;5024039;28;19936;-75
2021/03/05 12:58:52;;;;;;;;;;;17.40;59.50;;;;;;5050312;28;20336;-75
2021/03/05 13:01:21;;;;;;;;;;;17.40;59.60;;;;;;5032840;28;19959;-75
2021/03/05 13:03:46;;;;;;;;;;;17.30;59.60;;;;;;5043738;28;19971;-76
2021/03/05 13:06:17;;;;;;;;;;;17.30;59.70;;;;;;5025752;28;19917;-76
2021/03/05 13:08:42;;;;;;;;;;;17.30;60.00;;;;;;5025115;28;19913;-79
2021/03/05 13:11:08;;;;;;;;;;;17.30;60.10;;;;;;5045273;28;19928;-76
2021/03/05 13:13:34;;;;;;;;;;;17.30;60.60;;;;;;5044899;28;19974;-78
2021/03/05 13:15:59;;;;;;;;;;;17.30;61.80;;;;;;5045698;28;20366;-78
2021/03/05 13:18:25;;;;;;;;;;;17.30;61.50;;;;;;5045945;28;19973;-77
2021/03/05 13:20:54;;;;;;;;;;;17.30;61.40;;;;;;5052534;28;19912;-76
2021/03/05 13:23:22;;;;;;;;;;;17.30;61.20;;;;;;5035199;28;20358;-77
2021/03/05 13:25:47;;;;;;;;;;;17.30;61.10;;;;;;5024539;28;20279;-77
2021/03/05 13:28:14;;;;;;;;;;;17.30;61.10;;;;;;5047075;28;19924;-77
2021/03/05 13:30:45;;;;;;;;;;;17.30;61.10;;;;;;5027369;28;19921;-77
2021/03/05 13:33:10;;;;;;;;;;;17.30;61.80;;;;;;5041926;28;19913;-77
2021/03/05 13:35:36;;;;;;;;;;;17.30;61.70;;;;;;5055005;28;20588;-78
2021/03/05 13:38:02;;;;;;;;;;;17.30;61.70;;;;;;5051606;28;19912;-77
2021/03/05 13:40:33;;;;;;;;;;;17.30;62.00;;;;;;5068073;28;19913;-76
2021/03/05 13:42:58;;;;;;;;;;;17.30;62.00;;;;;;5056845;28;20002;-76
2021/03/05 13:45:28;;;;;;;;;;;17.30;61.90;;;;;;5082230;28;19917;-76
2021/03/05 13:47:58;;;;;;;;;;;17.40;61.90;;;;;;5065452;28;19927;-76
2021/03/05 13:50:31;;;;;;;;;;;17.30;61.60;;;;;;5047558;28;19923;-76
2021/03/05 13:52:56;;;;;;;;;;;17.40;61.50;;;;;;5062402;28;19912;-77
2021/03/05 13:55:22;;;;;;;;;;;17.30;61.30;;;;;;5058052;28;19932;-76
2021/03/05 13:57:47;;;;;;;;;;;17.30;61.10;;;;;;5066721;28;19916;-76
2021/03/05 14:00:13;;;;;;;;;;;17.30;61.00;;;;;;5068741;28;19935;-76
2021/03/05 14:02:39;;;;;;;;;;;17.30;61.00;;;;;;5073085;28;20300;-76
2021/03/05 14:05:08;;;;;;;;;;;17.30;60.90;;;;;;5057880;28;19927;-76
2021/03/05 14:07:39;;;;;;;;;;;17.30;60.70;;;;;;5055887;28;20365;-76
2021/03/05 14:10:05;;;;;;;;;;;17.30;61.10;;;;;;5070800;28;19920;-76
2021/03/05 14:12:31;;;;;;;;;;;17.30;60.90;;;;;;5042161;28;19913;-77
2021/03/05 14:14:57;;;;;;;;;;;17.30;60.50;;;;;;5069979;28;19921;-76
2021/03/05 14:17:22;;;;;;;;;;;17.30;60.40;;;;;;5066707;28;19970;-76
2021/03/05 14:19:48;;;;;;;;;;;17.30;60.30;;;;;;5059513;28;20321;-77
2021/03/05 14:22:13;;;;;;;;;;;17.30;60.40;;;;;;5066031;28;19955;-76
2021/03/05 14:27:08;;;;;;;;;;;17.30;60.50;;;;;;5141839;22;20063;-74
2021/03/05 14:29:34;;;;;;;;;;;17.30;60.60;;;;;;5028526;28;20413;-76
2021/03/05 14:31:59;;;;;;;;;;;17.30;60.60;;;;;;5056406;28;19917;-74
2021/03/05 14:34:25;;;;;;;;;;;17.30;60.70;;;;;;5049822;28;19986;-77
2021/03/05 14:36:50;;;;;;;;;;;17.30;60.80;;;;;;5054637;28;19999;-77